sensor_id;sensor_type;location;lat;lon;timestamp;P1;durP1;ratioP1;P2;durP2;ratioP2
77798;SDS011;66989;50.426;15.352;2023-02-13T00:01:23;21.92;;;10.32;;
77798;SDS011;66989;50.426;15.352;2023-02-13T00:03:49;17.90;;;8.80;;
77798;SDS011;66989;50.426;15.352;2023-02-13T00:06:14;21.67;;;10.32;;
77798;SDS011;66989;50.426;15.352;2023-02-13T00:08:39;23.23;;;10.13;;
77798;SDS011;66989;50.426;15.352;2023-02-13T00:11:05;19.33;;;10.00;;
77798;SDS011;66989;50.426;15.352;2023-02-13T00:13:31;22.23;;;9.98;;
77798;SDS011;66989;50.426;15.352;2023-02-13T00:15:59;19.23;;;9.75;;
77798;SDS011;66989;50.426;15.352;2023-02-13T00:18:26;22.08;;;10.57;;
77798;SDS011;66989;50.426;15.352;2023-02-13T00:20:56;21.52;;;9.95;;
77798;SDS011;66989;50.426;15.352;2023-02-13T00:23:27;15.38;;;8.35;;
77798;SDS011;66989;50.426;15.352;2023-02-13T00:25:54;18.88;;;8.38;;
77798;SDS011;66989;50.426;15.352;2023-02-13T00:28:19;20.25;;;9.18;;
77798;SDS011;66989;50.426;15.352;2023-02-13T00:30:45;14.70;;;7.15;;
77798;SDS011;66989;50.426;15.352;2023-02-13T00:33:10;20.67;;;10.82;;
77798;SDS011;66989;50.426;15.352;2023-02-13T00:35:36;19.35;;;8.20;;
77798;SDS011;66989;50.426;15.352;2023-02-13T00:38:01;21.03;;;9.90;;
77798;SDS011;66989;50.426;15.352;2023-02-13T00:40:26;22.87;;;9.03;;
77798;SDS011;66989;50.426;15.352;2023-02-13T00:42:52;18.73;;;8.57;;
77798;SDS011;66989;50.426;15.352;2023-02-13T00:45:17;19.67;;;9.45;;
77798;SDS011;66989;50.426;15.352;2023-02-13T00:47:42;18.10;;;8.53;;
77798;SDS011;66989;50.426;15.352;2023-02-13T00:50:08;20.90;;;8.80;;
77798;SDS011;66989;50.426;15.352;2023-02-13T00:52:33;21.20;;;9.75;;
77798;SDS011;66989;50.426;15.352;2023-02-13T00:54:59;21.07;;;9.77;;
77798;SDS011;66989;50.426;15.352;2023-02-13T00:57:24;20.80;;;9.77;;
77798;SDS011;66989;50.426;15.352;2023-02-13T00:59:49;27.15;;;10.70;;
77798;SDS011;66989;50.426;15.352;2023-02-13T01:02:15;22.83;;;9.90;;
77798;SDS011;66989;50.426;15.352;2023-02-13T01:04:40;19.03;;;9.20;;
77798;SDS011;66989;50.426;15.352;2023-02-13T01:07:06;16.27;;;7.50;;
77798;SDS011;66989;50.426;15.352;2023-02-13T01:09:31;24.67;;;10.75;;
77798;SDS011;66989;50.426;15.352;2023-02-13T01:11:56;21.30;;;10.65;;
77798;SDS011;66989;50.426;15.352;2023-02-13T01:14:22;18.27;;;8.88;;
77798;SDS011;66989;50.426;15.352;2023-02-13T01:16:47;18.00;;;8.25;;
77798;SDS011;66989;50.426;15.352;2023-02-13T01:19:12;19.50;;;8.23;;
77798;SDS011;66989;50.426;15.352;2023-02-13T01:21:38;16.13;;;7.38;;
77798;SDS011;66989;50.426;15.352;2023-02-13T01:24:03;18.43;;;8.20;;
77798;SDS011;66989;50.426;15.352;2023-02-13T01:26:29;20.20;;;8.27;;
77798;SDS011;66989;50.426;15.352;2023-02-13T01:28:55;17.45;;;8.10;;
77798;SDS011;66989;50.426;15.352;2023-02-13T01:31:22;20.42;;;10.50;;
77798;SDS011;66989;50.426;15.352;2023-02-13T01:33:48;16.05;;;7.97;;
77798;SDS011;66989;50.426;15.352;2023-02-13T01:36:13;15.82;;;7.97;;
77798;SDS011;66989;50.426;15.352;2023-02-13T01:38:39;15.05;;;7.35;;
77798;SDS011;66989;50.426;15.352;2023-02-13T01:41:05;16.70;;;8.75;;
77798;SDS011;66989;50.426;15.352;2023-02-13T01:46:12;17.05;;;8.63;;
77798;SDS011;66989;50.426;15.352;2023-02-13T01:48:41;14.77;;;6.85;;
77798;SDS011;66989;50.426;15.352;2023-02-13T01:51:07;16.05;;;7.22;;
77798;SDS011;66989;50.426;15.352;2023-02-13T01:53:40;11.55;;;6.60;;
77798;SDS011;66989;50.426;15.352;2023-02-13T01:58:57;18.33;;;10.10;;
77798;SDS011;66989;50.426;15.352;2023-02-13T02:01:26;15.77;;;8.93;;
77798;SDS011;66989;50.426;15.352;2023-02-13T02:03:57;15.75;;;8.60;;
77798;SDS011;66989;50.426;15.352;2023-02-13T02:06:37;16.58;;;9.07;;
77798;SDS011;66989;50.426;15.352;2023-02-13T02:09:12;16.10;;;8.40;;
77798;SDS011;66989;50.426;15.352;2023-02-13T02:14:16;17.08;;;8.25;;
77798;SDS011;66989;50.426;15.352;2023-02-13T02:16:42;15.00;;;8.90;;
77798;SDS011;66989;50.426;15.352;2023-02-13T02:19:10;16.35;;;7.90;;
77798;SDS011;66989;50.426;15.352;2023-02-13T02:27:29;12.90;;;6.60;;
77798;SDS011;66989;50.426;15.352;2023-02-13T02:30:45;18.77;;;9.68;;
77798;SDS011;66989;50.426;15.352;2023-02-13T02:33:36;14.85;;;7.47;;
77798;SDS011;66989;50.426;15.352;2023-02-13T02:38:47;20.20;;;10.13;;
77798;SDS011;66989;50.426;15.352;2023-02-13T02:41:35;13.05;;;6.57;;
77798;SDS011;66989;50.426;15.352;2023-02-13T02:47:17;18.83;;;9.65;;
77798;SDS011;66989;50.426;15.352;2023-02-13T02:55:25;12.65;;;5.97;;
77798;SDS011;66989;50.426;15.352;2023-02-13T03:01:10;19.48;;;8.15;;
77798;SDS011;66989;50.426;15.352;2023-02-13T03:03:57;12.43;;;6.55;;
77798;SDS011;66989;50.426;15.352;2023-02-13T03:06:44;11.70;;;5.10;;
77798;SDS011;66989;50.426;15.352;2023-02-13T03:09:16;13.52;;;6.90;;
77798;SDS011;66989;50.426;15.352;2023-02-13T03:12:05;18.38;;;9.75;;
77798;SDS011;66989;50.426;15.352;2023-02-13T03:14:51;16.38;;;8.98;;
77798;SDS011;66989;50.426;15.352;2023-02-13T03:17:17;12.27;;;6.38;;
77798;SDS011;66989;50.426;15.352;2023-02-13T03:20:05;10.63;;;5.43;;
77798;SDS011;66989;50.426;15.352;2023-02-13T03:23:06;13.93;;;5.68;;
77798;SDS011;66989;50.426;15.352;2023-02-13T03:31:21;13.60;;;6.82;;
77798;SDS011;66989;50.426;15.352;2023-02-13T03:34:01;17.08;;;8.18;;
77798;SDS011;66989;50.426;15.352;2023-02-13T03:36:52;12.68;;;5.57;;
77798;SDS011;66989;50.426;15.352;2023-02-13T03:42:30;10.45;;;5.22;;
77798;SDS011;66989;50.426;15.352;2023-02-13T03:45:04;7.30;;;3.22;;
77798;SDS011;66989;50.426;15.352;2023-02-13T03:47:54;14.25;;;5.93;;
77798;SDS011;66989;50.426;15.352;2023-02-13T03:50:21;11.80;;;4.78;;
77798;SDS011;66989;50.426;15.352;2023-02-13T03:53:07;8.82;;;5.05;;
77798;SDS011;66989;50.426;15.352;2023-02-13T03:55:43;11.68;;;5.15;;
77798;SDS011;66989;50.426;15.352;2023-02-13T03:58:34;13.15;;;6.05;;
77798;SDS011;66989;50.426;15.352;2023-02-13T04:01:21;11.85;;;5.55;;
77798;SDS011;66989;50.426;15.352;2023-02-13T04:09:13;11.10;;;5.43;;
77798;SDS011;66989;50.426;15.352;2023-02-13T04:11:41;9.88;;;5.00;;
77798;SDS011;66989;50.426;15.352;2023-02-13T04:14:18;15.07;;;7.63;;
77798;SDS011;66989;50.426;15.352;2023-02-13T04:16:52;17.23;;;8.80;;
77798;SDS011;66989;50.426;15.352;2023-02-13T04:19:24;17.60;;;10.18;;
77798;SDS011;66989;50.426;15.352;2023-02-13T04:21:53;14.80;;;7.15;;
77798;SDS011;66989;50.426;15.352;2023-02-13T04:24:21;15.52;;;7.82;;
77798;SDS011;66989;50.426;15.352;2023-02-13T04:26:47;12.52;;;5.65;;
77798;SDS011;66989;50.426;15.352;2023-02-13T04:29:12;16.75;;;8.07;;
77798;SDS011;66989;50.426;15.352;2023-02-13T04:31:38;14.03;;;7.07;;
77798;SDS011;66989;50.426;15.352;2023-02-13T04:34:04;18.17;;;9.55;;
77798;SDS011;66989;50.426;15.352;2023-02-13T04:36:29;12.65;;;7.05;;
77798;SDS011;66989;50.426;15.352;2023-02-13T04:38:55;11.13;;;5.07;;
77798;SDS011;66989;50.426;15.352;2023-02-13T04:41:20;17.98;;;8.95;;
77798;SDS011;66989;50.426;15.352;2023-02-13T04:43:46;13.30;;;6.22;;
77798;SDS011;66989;50.426;15.352;2023-02-13T04:46:11;19.65;;;9.25;;
77798;SDS011;66989;50.426;15.352;2023-02-13T04:48:37;14.82;;;7.53;;
77798;SDS011;66989;50.426;15.352;2023-02-13T04:51:02;12.23;;;6.13;;
77798;SDS011;66989;50.426;15.352;2023-02-13T04:53:27;17.42;;;8.45;;
77798;SDS011;66989;50.426;15.352;2023-02-13T04:55:53;17.27;;;7.60;;
77798;SDS011;66989;50.426;15.352;2023-02-13T04:58:18;12.07;;;6.28;;
77798;SDS011;66989;50.426;15.352;2023-02-13T05:00:43;17.30;;;9.03;;
77798;SDS011;66989;50.426;15.352;2023-02-13T05:03:11;12.85;;;7.15;;
77798;SDS011;66989;50.426;15.352;2023-02-13T05:05:37;16.80;;;8.18;;
77798;SDS011;66989;50.426;15.352;2023-02-13T05:08:04;16.38;;;8.77;;
77798;SDS011;66989;50.426;15.352;2023-02-13T05:10:30;23.70;;;8.25;;
77798;SDS011;66989;50.426;15.352;2023-02-13T05:12:56;13.35;;;8.80;;
77798;SDS011;66989;50.426;15.352;2023-02-13T05:15:21;12.68;;;6.60;;
77798;SDS011;66989;50.426;15.352;2023-02-13T05:17:47;11.02;;;5.10;;
77798;SDS011;66989;50.426;15.352;2023-02-13T05:20:13;7.35;;;3.20;;
77798;SDS011;66989;50.426;15.352;2023-02-13T05:22:46;11.85;;;5.82;;
77798;SDS011;66989;50.426;15.352;2023-02-13T05:25:31;10.32;;;4.63;;
77798;SDS011;66989;50.426;15.352;2023-02-13T05:27:57;21.60;;;10.50;;
77798;SDS011;66989;50.426;15.352;2023-02-13T05:30:23;12.73;;;6.25;;
77798;SDS011;66989;50.426;15.352;2023-02-13T05:32:49;12.07;;;5.75;;
77798;SDS011;66989;50.426;15.352;2023-02-13T05:35:18;13.02;;;5.90;;
77798;SDS011;66989;50.426;15.352;2023-02-13T05:37:48;12.75;;;7.05;;
77798;SDS011;66989;50.426;15.352;2023-02-13T05:40:13;12.70;;;5.10;;
77798;SDS011;66989;50.426;15.352;2023-02-13T05:42:39;12.25;;;8.00;;
77798;SDS011;66989;50.426;15.352;2023-02-13T05:45:06;13.85;;;7.47;;
77798;SDS011;66989;50.426;15.352;2023-02-13T05:47:32;13.68;;;7.97;;
77798;SDS011;66989;50.426;15.352;2023-02-13T05:49:57;14.65;;;7.95;;
77798;SDS011;66989;50.426;15.352;2023-02-13T05:52:23;19.05;;;10.60;;
77798;SDS011;66989;50.426;15.352;2023-02-13T05:54:48;22.35;;;11.57;;
77798;SDS011;66989;50.426;15.352;2023-02-13T05:57:13;23.97;;;12.83;;
77798;SDS011;66989;50.426;15.352;2023-02-13T05:59:39;19.25;;;10.95;;
77798;SDS011;66989;50.426;15.352;2023-02-13T06:02:04;20.50;;;11.75;;
77798;SDS011;66989;50.426;15.352;2023-02-13T06:04:29;29.47;;;15.97;;
77798;SDS011;66989;50.426;15.352;2023-02-13T06:06:55;29.80;;;17.47;;
77798;SDS011;66989;50.426;15.352;2023-02-13T06:09:20;32.17;;;16.08;;
77798;SDS011;66989;50.426;15.352;2023-02-13T06:11:46;30.67;;;16.80;;
77798;SDS011;66989;50.426;15.352;2023-02-13T06:14:13;28.05;;;14.88;;
77798;SDS011;66989;50.426;15.352;2023-02-13T06:16:38;24.70;;;12.07;;
77798;SDS011;66989;50.426;15.352;2023-02-13T06:19:04;26.80;;;12.20;;
77798;SDS011;66989;50.426;15.352;2023-02-13T06:21:30;21.30;;;9.82;;
77798;SDS011;66989;50.426;15.352;2023-02-13T06:23:57;15.13;;;7.25;;
77798;SDS011;66989;50.426;15.352;2023-02-13T06:26:22;11.10;;;6.53;;
77798;SDS011;66989;50.426;15.352;2023-02-13T06:28:48;12.02;;;5.72;;
77798;SDS011;66989;50.426;15.352;2023-02-13T06:31:16;13.13;;;6.53;;
77798;SDS011;66989;50.426;15.352;2023-02-13T06:33:41;11.03;;;5.40;;
77798;SDS011;66989;50.426;15.352;2023-02-13T06:36:07;12.20;;;5.90;;
77798;SDS011;66989;50.426;15.352;2023-02-13T06:38:32;9.32;;;4.25;;
77798;SDS011;66989;50.426;15.352;2023-02-13T06:40:59;16.43;;;8.03;;
77798;SDS011;66989;50.426;15.352;2023-02-13T06:43:26;21.92;;;11.25;;
77798;SDS011;66989;50.426;15.352;2023-02-13T06:45:51;22.02;;;11.93;;
77798;SDS011;66989;50.426;15.352;2023-02-13T06:48:19;24.70;;;13.25;;
77798;SDS011;66989;50.426;15.352;2023-02-13T06:50:44;25.80;;;14.38;;
77798;SDS011;66989;50.426;15.352;2023-02-13T06:53:10;38.58;;;19.80;;
77798;SDS011;66989;50.426;15.352;2023-02-13T06:55:35;35.13;;;17.98;;
77798;SDS011;66989;50.426;15.352;2023-02-13T06:58:03;33.20;;;16.90;;
77798;SDS011;66989;50.426;15.352;2023-02-13T07:00:29;44.65;;;21.42;;
77798;SDS011;66989;50.426;15.352;2023-02-13T07:02:59;34.00;;;19.83;;
77798;SDS011;66989;50.426;15.352;2023-02-13T07:05:26;33.28;;;17.30;;
77798;SDS011;66989;50.426;15.352;2023-02-13T07:07:52;26.00;;;13.77;;
77798;SDS011;66989;50.426;15.352;2023-02-13T07:10:17;21.38;;;9.45;;
77798;SDS011;66989;50.426;15.352;2023-02-13T07:12:43;30.65;;;14.15;;
77798;SDS011;66989;50.426;15.352;2023-02-13T07:15:08;19.02;;;8.05;;
77798;SDS011;66989;50.426;15.352;2023-02-13T07:17:34;27.77;;;14.10;;
77798;SDS011;66989;50.426;15.352;2023-02-13T07:20:00;30.20;;;14.55;;
77798;SDS011;66989;50.426;15.352;2023-02-13T07:22:26;32.90;;;18.48;;
77798;SDS011;66989;50.426;15.352;2023-02-13T07:24:51;23.42;;;13.18;;
77798;SDS011;66989;50.426;15.352;2023-02-13T07:27:16;17.77;;;9.43;;
77798;SDS011;66989;50.426;15.352;2023-02-13T07:29:42;21.05;;;9.68;;
77798;SDS011;66989;50.426;15.352;2023-02-13T07:32:07;15.70;;;8.13;;
77798;SDS011;66989;50.426;15.352;2023-02-13T07:34:33;19.88;;;9.88;;
77798;SDS011;66989;50.426;15.352;2023-02-13T07:36:58;26.55;;;14.48;;
77798;SDS011;66989;50.426;15.352;2023-02-13T07:39:23;35.30;;;19.45;;
77798;SDS011;66989;50.426;15.352;2023-02-13T07:41:50;25.00;;;12.23;;
77798;SDS011;66989;50.426;15.352;2023-02-13T07:44:16;34.17;;;17.33;;
77798;SDS011;66989;50.426;15.352;2023-02-13T07:46:41;36.22;;;17.08;;
77798;SDS011;66989;50.426;15.352;2023-02-13T07:49:07;38.13;;;16.98;;
77798;SDS011;66989;50.426;15.352;2023-02-13T07:51:32;21.23;;;9.68;;
77798;SDS011;66989;50.426;15.352;2023-02-13T07:53:57;30.02;;;12.43;;
77798;SDS011;66989;50.426;15.352;2023-02-13T07:56:23;24.00;;;11.15;;
77798;SDS011;66989;50.426;15.352;2023-02-13T07:58:48;34.80;;;16.00;;
77798;SDS011;66989;50.426;15.352;2023-02-13T08:01:14;38.90;;;17.65;;
77798;SDS011;66989;50.426;15.352;2023-02-13T08:03:41;36.30;;;19.88;;
77798;SDS011;66989;50.426;15.352;2023-02-13T08:06:07;38.33;;;19.17;;
77798;SDS011;66989;50.426;15.352;2023-02-13T08:08:33;37.90;;;18.10;;
77798;SDS011;66989;50.426;15.352;2023-02-13T08:11:04;35.42;;;16.10;;
77798;SDS011;66989;50.426;15.352;2023-02-13T08:13:50;39.63;;;15.05;;
77798;SDS011;66989;50.426;15.352;2023-02-13T08:16:15;35.53;;;15.38;;
77798;SDS011;66989;50.426;15.352;2023-02-13T08:18:41;45.30;;;17.02;;
77798;SDS011;66989;50.426;15.352;2023-02-13T08:21:06;35.88;;;14.10;;
77798;SDS011;66989;50.426;15.352;2023-02-13T08:23:32;35.15;;;15.32;;
77798;SDS011;66989;50.426;15.352;2023-02-13T08:26:00;34.30;;;13.35;;
77798;SDS011;66989;50.426;15.352;2023-02-13T08:28:27;29.95;;;12.02;;
77798;SDS011;66989;50.426;15.352;2023-02-13T08:30:53;35.40;;;13.93;;
77798;SDS011;66989;50.426;15.352;2023-02-13T08:33:19;30.65;;;13.82;;
77798;SDS011;66989;50.426;15.352;2023-02-13T08:35:44;38.50;;;16.33;;
77798;SDS011;66989;50.426;15.352;2023-02-13T08:38:10;40.70;;;15.70;;
77798;SDS011;66989;50.426;15.352;2023-02-13T08:40:35;27.92;;;12.65;;
77798;SDS011;66989;50.426;15.352;2023-02-13T08:43:01;30.08;;;14.05;;
77798;SDS011;66989;50.426;15.352;2023-02-13T08:47:57;35.70;;;14.30;;
77798;SDS011;66989;50.426;15.352;2023-02-13T08:50:23;36.53;;;16.95;;
77798;SDS011;66989;50.426;15.352;2023-02-13T08:52:50;42.92;;;15.52;;
77798;SDS011;66989;50.426;15.352;2023-02-13T08:55:15;35.95;;;14.52;;
77798;SDS011;66989;50.426;15.352;2023-02-13T08:57:40;35.13;;;14.70;;
77798;SDS011;66989;50.426;15.352;2023-02-13T09:00:06;30.07;;;13.80;;
77798;SDS011;66989;50.426;15.352;2023-02-13T09:02:33;32.50;;;13.57;;
77798;SDS011;66989;50.426;15.352;2023-02-13T09:04:58;38.73;;;15.30;;
77798;SDS011;66989;50.426;15.352;2023-02-13T09:07:24;29.50;;;13.85;;
77798;SDS011;66989;50.426;15.352;2023-02-13T09:09:49;35.00;;;13.88;;
77798;SDS011;66989;50.426;15.352;2023-02-13T09:12:14;32.25;;;13.80;;
77798;SDS011;66989;50.426;15.352;2023-02-13T09:14:40;32.37;;;13.70;;
77798;SDS011;66989;50.426;15.352;2023-02-13T09:17:05;33.53;;;13.55;;
77798;SDS011;66989;50.426;15.352;2023-02-13T09:19:30;26.38;;;10.32;;
77798;SDS011;66989;50.426;15.352;2023-02-13T09:21:56;37.00;;;13.88;;
77798;SDS011;66989;50.426;15.352;2023-02-13T09:24:21;24.98;;;12.38;;
77798;SDS011;66989;50.426;15.352;2023-02-13T09:26:47;37.67;;;15.02;;
77798;SDS011;66989;50.426;15.352;2023-02-13T09:29:12;35.53;;;14.13;;
77798;SDS011;66989;50.426;15.352;2023-02-13T09:31:38;107.90;;;51.03;;
77798;SDS011;66989;50.426;15.352;2023-02-13T09:34:03;34.63;;;15.88;;
77798;SDS011;66989;50.426;15.352;2023-02-13T09:36:28;33.10;;;12.68;;
77798;SDS011;66989;50.426;15.352;2023-02-13T09:38:54;30.57;;;14.93;;
77798;SDS011;66989;50.426;15.352;2023-02-13T09:41:35;39.63;;;14.38;;
77798;SDS011;66989;50.426;15.352;2023-02-13T09:44:05;35.83;;;16.10;;
77798;SDS011;66989;50.426;15.352;2023-02-13T09:47:00;29.77;;;13.82;;
77798;SDS011;66989;50.426;15.352;2023-02-13T09:49:31;33.40;;;15.80;;
77798;SDS011;66989;50.426;15.352;2023-02-13T09:52:02;32.10;;;13.60;;
77798;SDS011;66989;50.426;15.352;2023-02-13T09:54:28;34.92;;;16.85;;
77798;SDS011;66989;50.426;15.352;2023-02-13T09:57:16;31.30;;;12.85;;
77798;SDS011;66989;50.426;15.352;2023-02-13T10:03:10;45.33;;;19.20;;
77798;SDS011;66989;50.426;15.352;2023-02-13T10:11:07;35.53;;;17.50;;
77798;SDS011;66989;50.426;15.352;2023-02-13T10:13:54;33.08;;;16.58;;
77798;SDS011;66989;50.426;15.352;2023-02-13T10:16:40;27.52;;;13.20;;
77798;SDS011;66989;50.426;15.352;2023-02-13T10:22:15;21.55;;;10.65;;
77798;SDS011;66989;50.426;15.352;2023-02-13T10:24:48;22.52;;;9.20;;
77798;SDS011;66989;50.426;15.352;2023-02-13T10:29:49;19.65;;;8.52;;
77798;SDS011;66989;50.426;15.352;2023-02-13T10:32:50;18.92;;;8.45;;
77798;SDS011;66989;50.426;15.352;2023-02-13T10:35:43;19.05;;;9.95;;
77798;SDS011;66989;50.426;15.352;2023-02-13T10:38:16;17.25;;;7.45;;
77798;SDS011;66989;50.426;15.352;2023-02-13T10:41:18;20.15;;;8.05;;
77798;SDS011;66989;50.426;15.352;2023-02-13T10:55:15;17.05;;;8.25;;
77798;SDS011;66989;50.426;15.352;2023-02-13T11:00:34;12.27;;;8.13;;
77798;SDS011;66989;50.426;15.352;2023-02-13T11:03:08;13.57;;;7.03;;
77798;SDS011;66989;50.426;15.352;2023-02-13T11:05:41;15.63;;;7.68;;
77798;SDS011;66989;50.426;15.352;2023-02-13T11:10:51;13.05;;;6.10;;
77798;SDS011;66989;50.426;15.352;2023-02-13T11:13:24;13.63;;;7.50;;
77798;SDS011;66989;50.426;15.352;2023-02-13T11:16:02;15.57;;;8.77;;
77798;SDS011;66989;50.426;15.352;2023-02-13T11:18:32;12.43;;;6.72;;
77798;SDS011;66989;50.426;15.352;2023-02-13T11:21:34;16.98;;;7.32;;
77798;SDS011;66989;50.426;15.352;2023-02-13T11:23:59;11.88;;;5.43;;
77798;SDS011;66989;50.426;15.352;2023-02-13T11:26:30;15.95;;;7.32;;
77798;SDS011;66989;50.426;15.352;2023-02-13T11:29:00;14.25;;;8.57;;
77798;SDS011;66989;50.426;15.352;2023-02-13T11:31:30;13.57;;;7.50;;
77798;SDS011;66989;50.426;15.352;2023-02-13T11:34:17;15.02;;;7.57;;
77798;SDS011;66989;50.426;15.352;2023-02-13T11:36:50;13.25;;;6.85;;
77798;SDS011;66989;50.426;15.352;2023-02-13T11:39:18;13.90;;;6.95;;
77798;SDS011;66989;50.426;15.352;2023-02-13T11:41:45;12.23;;;6.93;;
77798;SDS011;66989;50.426;15.352;2023-02-13T11:46:47;15.57;;;8.13;;
77798;SDS011;66989;50.426;15.352;2023-02-13T11:49:16;11.50;;;6.07;;
77798;SDS011;66989;50.426;15.352;2023-02-13T11:52:06;12.13;;;5.57;;
77798;SDS011;66989;50.426;15.352;2023-02-13T11:54:47;12.95;;;5.90;;
77798;SDS011;66989;50.426;15.352;2023-02-13T11:57:31;10.77;;;6.07;;
77798;SDS011;66989;50.426;15.352;2023-02-13T11:59:59;13.95;;;6.65;;
77798;SDS011;66989;50.426;15.352;2023-02-13T12:02:29;14.98;;;6.78;;
77798;SDS011;66989;50.426;15.352;2023-02-13T12:07:44;11.63;;;6.75;;
77798;SDS011;66989;50.426;15.352;2023-02-13T12:10:26;15.80;;;8.30;;
77798;SDS011;66989;50.426;15.352;2023-02-13T12:15:37;11.60;;;6.10;;
77798;SDS011;66989;50.426;15.352;2023-02-13T12:21:03;10.00;;;4.93;;
77798;SDS011;66989;50.426;15.352;2023-02-13T12:28:53;9.23;;;5.45;;
77798;SDS011;66989;50.426;15.352;2023-02-13T13:14:33;7.40;;;4.93;;
77798;SDS011;66989;50.426;15.352;2023-02-13T13:22:26;6.63;;;4.07;;
77798;SDS011;66989;50.426;15.352;2023-02-13T13:25:19;6.80;;;3.90;;
77798;SDS011;66989;50.426;15.352;2023-02-13T13:28:01;7.22;;;3.95;;
77798;SDS011;66989;50.426;15.352;2023-02-13T13:30:34;8.30;;;4.30;;
77798;SDS011;66989;50.426;15.352;2023-02-13T13:33:02;6.28;;;3.50;;
77798;SDS011;66989;50.426;15.352;2023-02-13T13:36:06;7.40;;;4.18;;
77798;SDS011;66989;50.426;15.352;2023-02-13T13:46:58;3.95;;;2.47;;
77798;SDS011;66989;50.426;15.352;2023-02-13T13:52:10;6.00;;;4.30;;
77798;SDS011;66989;50.426;15.352;2023-02-13T13:54:45;3.78;;;2.35;;
77798;SDS011;66989;50.426;15.352;2023-02-13T13:57:15;4.30;;;2.72;;
77798;SDS011;66989;50.426;15.352;2023-02-13T14:05:09;7.95;;;4.13;;
77798;SDS011;66989;50.426;15.352;2023-02-13T14:07:51;6.82;;;4.07;;
77798;SDS011;66989;50.426;15.352;2023-02-13T14:12:48;6.70;;;3.88;;
77798;SDS011;66989;50.426;15.352;2023-02-13T14:20:42;10.75;;;6.20;;
77798;SDS011;66989;50.426;15.352;2023-02-13T14:23:26;10.02;;;5.32;;
77798;SDS011;66989;50.426;15.352;2023-02-13T14:28:41;10.55;;;6.63;;
77798;SDS011;66989;50.426;15.352;2023-02-13T14:31:26;10.18;;;5.03;;
77798;SDS011;66989;50.426;15.352;2023-02-13T14:39:37;8.00;;;4.93;;
77798;SDS011;66989;50.426;15.352;2023-02-13T14:42:22;10.48;;;4.75;;
77798;SDS011;66989;50.426;15.352;2023-02-13T14:45:00;11.35;;;4.78;;
77798;SDS011;66989;50.426;15.352;2023-02-13T14:47:45;8.52;;;4.72;;
77798;SDS011;66989;50.426;15.352;2023-02-13T14:50:27;8.23;;;4.10;;
77798;SDS011;66989;50.426;15.352;2023-02-13T14:52:57;8.27;;;3.92;;
77798;SDS011;66989;50.426;15.352;2023-02-13T14:58:35;6.38;;;3.90;;
77798;SDS011;66989;50.426;15.352;2023-02-13T15:01:19;12.70;;;6.60;;
77798;SDS011;66989;50.426;15.352;2023-02-13T15:06:13;8.55;;;5.65;;
77798;SDS011;66989;50.426;15.352;2023-02-13T15:08:49;8.07;;;4.45;;
77798;SDS011;66989;50.426;15.352;2023-02-13T15:11:36;9.43;;;4.72;;
77798;SDS011;66989;50.426;15.352;2023-02-13T15:16:48;11.68;;;5.63;;
77798;SDS011;66989;50.426;15.352;2023-02-13T15:19:20;8.75;;;4.70;;
77798;SDS011;66989;50.426;15.352;2023-02-13T15:22:00;11.32;;;5.65;;
77798;SDS011;66989;50.426;15.352;2023-02-13T15:24:30;7.45;;;4.53;;
77798;SDS011;66989;50.426;15.352;2023-02-13T15:27:13;10.32;;;5.00;;
77798;SDS011;66989;50.426;15.352;2023-02-13T15:29:52;9.95;;;5.43;;
77798;SDS011;66989;50.426;15.352;2023-02-13T15:32:28;7.97;;;4.53;;
77798;SDS011;66989;50.426;15.352;2023-02-13T15:35:09;8.05;;;4.03;;
77798;SDS011;66989;50.426;15.352;2023-02-13T15:37:45;9.50;;;4.85;;
77798;SDS011;66989;50.426;15.352;2023-02-13T15:40:29;8.20;;;4.47;;
77798;SDS011;66989;50.426;15.352;2023-02-13T15:42:58;12.23;;;7.55;;
77798;SDS011;66989;50.426;15.352;2023-02-13T15:45:26;9.07;;;5.35;;
77798;SDS011;66989;50.426;15.352;2023-02-13T15:47:53;9.80;;;6.18;;
77798;SDS011;66989;50.426;15.352;2023-02-13T15:50:35;9.13;;;5.88;;
77798;SDS011;66989;50.426;15.352;2023-02-13T15:53:03;10.43;;;5.75;;
77798;SDS011;66989;50.426;15.352;2023-02-13T15:55:34;11.23;;;6.03;;
77798;SDS011;66989;50.426;15.352;2023-02-13T15:58:01;9.30;;;6.07;;
77798;SDS011;66989;50.426;15.352;2023-02-13T16:00:31;8.88;;;5.60;;
77798;SDS011;66989;50.426;15.352;2023-02-13T16:02:59;13.00;;;6.85;;
77798;SDS011;66989;50.426;15.352;2023-02-13T16:05:29;16.23;;;8.48;;
77798;SDS011;66989;50.426;15.352;2023-02-13T16:08:01;13.75;;;7.72;;
77798;SDS011;66989;50.426;15.352;2023-02-13T16:10:27;14.65;;;6.97;;
77798;SDS011;66989;50.426;15.352;2023-02-13T16:12:57;12.02;;;5.53;;
77798;SDS011;66989;50.426;15.352;2023-02-13T16:15:26;15.63;;;8.88;;
77798;SDS011;66989;50.426;15.352;2023-02-13T16:17:53;12.93;;;7.60;;
77798;SDS011;66989;50.426;15.352;2023-02-13T16:20:30;16.65;;;8.05;;
77798;SDS011;66989;50.426;15.352;2023-02-13T16:23:02;11.48;;;6.82;;
77798;SDS011;66989;50.426;15.352;2023-02-13T16:25:38;13.45;;;6.82;;
77798;SDS011;66989;50.426;15.352;2023-02-13T16:33:20;12.85;;;6.65;;
77798;SDS011;66989;50.426;15.352;2023-02-13T16:35:54;17.05;;;10.40;;
77798;SDS011;66989;50.426;15.352;2023-02-13T16:38:42;18.38;;;11.45;;
77798;SDS011;66989;50.426;15.352;2023-02-13T16:43:57;18.48;;;11.00;;
77798;SDS011;66989;50.426;15.352;2023-02-13T16:51:28;14.43;;;9.40;;
77798;SDS011;66989;50.426;15.352;2023-02-13T16:53:58;15.13;;;8.90;;
77798;SDS011;66989;50.426;15.352;2023-02-13T16:56:25;13.60;;;7.78;;
77798;SDS011;66989;50.426;15.352;2023-02-13T16:59:02;13.23;;;8.60;;
77798;SDS011;66989;50.426;15.352;2023-02-13T17:01:46;14.23;;;9.40;;
77798;SDS011;66989;50.426;15.352;2023-02-13T17:04:16;10.30;;;6.20;;
77798;SDS011;66989;50.426;15.352;2023-02-13T17:06:45;15.52;;;8.82;;
77798;SDS011;66989;50.426;15.352;2023-02-13T17:09:10;14.05;;;8.32;;
77798;SDS011;66989;50.426;15.352;2023-02-13T17:11:36;12.03;;;7.80;;
77798;SDS011;66989;50.426;15.352;2023-02-13T17:14:01;18.87;;;12.97;;
77798;SDS011;66989;50.426;15.352;2023-02-13T17:16:26;18.80;;;12.52;;
77798;SDS011;66989;50.426;15.352;2023-02-13T17:18:52;15.87;;;10.93;;
77798;SDS011;66989;50.426;15.352;2023-02-13T17:21:17;18.90;;;13.17;;
77798;SDS011;66989;50.426;15.352;2023-02-13T17:23:42;13.38;;;9.27;;
77798;SDS011;66989;50.426;15.352;2023-02-13T17:26:08;15.25;;;8.88;;
77798;SDS011;66989;50.426;15.352;2023-02-13T17:28:33;15.47;;;9.57;;
77798;SDS011;66989;50.426;15.352;2023-02-13T17:30:58;16.75;;;9.18;;
77798;SDS011;66989;50.426;15.352;2023-02-13T17:33:25;28.58;;;17.48;;
77798;SDS011;66989;50.426;15.352;2023-02-13T17:35:52;22.13;;;12.88;;
77798;SDS011;66989;50.426;15.352;2023-02-13T17:38:18;17.25;;;10.70;;
77798;SDS011;66989;50.426;15.352;2023-02-13T17:40:44;14.57;;;10.07;;
77798;SDS011;66989;50.426;15.352;2023-02-13T17:43:11;12.93;;;8.07;;
77798;SDS011;66989;50.426;15.352;2023-02-13T17:45:37;13.52;;;7.60;;
77798;SDS011;66989;50.426;15.352;2023-02-13T17:48:03;14.63;;;8.73;;
77798;SDS011;66989;50.426;15.352;2023-02-13T17:50:30;13.60;;;8.18;;
77798;SDS011;66989;50.426;15.352;2023-02-13T17:52:57;16.05;;;10.13;;